Time;durP1;ratioP1;P1;durP2;ratioP2;P2;SDS_P1;SDS_P2;PMS_P1;PMS_P2;Temp;Humidity;BMP_temperature;BMP_pressure;BME280_temperature;BME280_humidity;BME280_pressure;Samples;Min_cycle;Max_cycle;Signal;HPM_P1;HPM_P2
2022/10/06 00:01:17;;;;;;;66.40;7.87;;;16.10;99.90;;;;;;5043713;28;20402;-84
2022/10/06 00:03:43;;;;;;;69.37;13.87;;;15.90;99.90;;;;;;5043495;28;20217;-84
2022/10/06 00:06:13;;;;;;;67.83;13.43;;;15.90;99.90;;;;;;5043870;28;20435;-85
2022/10/06 00:08:41;;;;;;;74.20;15.20;;;15.80;99.90;;;;;;5044230;28;20470;-84
2022/10/06 00:11:08;;;;;;;68.03;15.43;;;15.80;99.90;;;;;;5044432;28;20404;-84
2022/10/06 00:13:37;;;;;;;66.07;8.23;;;15.80;99.90;;;;;;5044845;28;20400;-84
2022/10/06 00:16:13;;;;;;;68.57;8.63;;;15.80;99.90;;;;;;5043784;28;20516;-84
2022/10/06 00:18:38;;;;;;;67.50;8.73;;;15.80;99.90;;;;;;5044278;28;20415;-84
2022/10/06 00:21:04;;;;;;;68.20;9.90;;;15.80;99.90;;;;;;5044066;28;20416;-84
2022/10/06 00:23:30;;;;;;;66.90;8.33;;;15.80;99.90;;;;;;5026579;28;20168;-84
2022/10/06 00:25:57;;;;;;;66.20;10.93;;;15.90;99.90;;;;;;5040442;28;20400;-84
2022/10/06 00:28:23;;;;;;;67.27;9.67;;;16.00;99.90;;;;;;5044051;28;20909;-84
2022/10/06 00:30:49;;;;;;;67.30;10.10;;;16.00;99.90;;;;;;5043135;28;20450;-84
2022/10/06 00:33:16;;;;;;;68.07;13.53;;;16.10;99.90;;;;;;5043260;28;20226;-84
2022/10/06 00:35:43;;;;;;;66.43;11.70;;;16.10;99.90;;;;;;5043249;28;20413;-84
2022/10/06 00:38:14;;;;;;;67.23;13.47;;;16.10;99.90;;;;;;5042986;28;20431;-84
2022/10/06 00:40:45;;;;;;;70.37;12.50;;;16.10;99.90;;;;;;5025187;28;20414;-84
2022/10/06 00:43:35;;;;;;;67.07;11.60;;;16.00;99.90;;;;;;5042910;28;20401;-84
2022/10/06 00:46:01;;;;;;;68.10;14.23;;;16.10;99.90;;;;;;5042028;28;20394;-84
2022/10/06 00:48:29;;;;;;;67.33;12.50;;;16.20;99.90;;;;;;5042556;28;20425;-84
2022/10/06 00:50:57;;;;;;;70.30;14.47;;;16.20;99.90;;;;;;5042610;28;20254;-84
2022/10/06 00:53:29;;;;;;;68.43;12.40;;;16.30;99.90;;;;;;5042004;28;20397;-84
2022/10/06 00:55:56;;;;;;;67.93;12.77;;;16.20;99.90;;;;;;5042769;28;20385;-84
2022/10/06 00:58:22;;;;;;;67.00;12.80;;;16.20;99.90;;;;;;5042275;28;20784;-84
2022/10/06 01:00:54;;;;;;;71.30;12.70;;;16.20;99.90;;;;;;5024911;28;20486;-84
2022/10/06 01:03:33;;;;;;;70.27;14.97;;;16.20;99.90;;;;;;5042661;28;20416;-84
2022/10/06 01:06:01;;;;;;;66.70;12.90;;;16.20;99.90;;;;;;5042002;28;20382;-84
2022/10/06 01:08:27;;;;;;;68.30;12.13;;;16.10;99.90;;;;;;5042036;28;20503;-84
2022/10/06 01:10:53;;;;;;;68.20;15.27;;;16.20;99.90;;;;;;5041799;28;20405;-84
2022/10/06 01:13:19;;;;;;;69.80;14.33;;;16.10;99.90;;;;;;5041684;28;20422;-84
2022/10/06 01:16:10;;;;;;;69.03;16.13;;;16.20;99.90;;;;;;5042796;28;20171;-84
2022/10/06 01:18:38;;;;;;;69.00;18.03;;;16.20;99.90;;;;;;5042238;28;20420;-84
2022/10/06 01:21:12;;;;;;;70.70;13.10;;;16.10;99.90;;;;;;5041676;28;20395;-84
2022/10/06 01:23:38;;;;;;;68.73;14.70;;;16.10;99.90;;;;;;5041880;28;20377;-84
2022/10/06 01:26:08;;;;;;;69.20;13.70;;;16.10;99.90;;;;;;5024524;28;20448;-84
2022/10/06 01:28:35;;;;;;;67.40;12.17;;;16.00;99.90;;;;;;5041759;28;20442;-84
2022/10/06 01:31:01;;;;;;;71.73;13.90;;;16.00;99.90;;;;;;5041411;28;20847;-84
2022/10/06 01:33:28;;;;;;;67.60;13.50;;;16.10;99.90;;;;;;5041248;28;20496;-84
2022/10/06 01:35:54;;;;;;;69.20;15.43;;;16.10;99.90;;;;;;5042098;28;20403;-84
2022/10/06 01:38:20;;;;;;;69.50;16.53;;;16.10;99.90;;;;;;5023843;28;20430;-84
2022/10/06 01:40:48;;;;;;;71.20;14.67;;;15.90;99.90;;;;;;5041724;28;20908;-84
2022/10/06 01:43:14;;;;;;;70.03;16.60;;;16.00;99.90;;;;;;5041472;28;20409;-84
2022/10/06 01:45:40;;;;;;;79.50;15.27;;;15.90;99.90;;;;;;5041640;28;20914;-84
2022/10/06 01:48:06;;;;;;;68.20;14.70;;;15.80;99.90;;;;;;5041948;28;20190;-84
2022/10/06 01:50:31;;;;;;;71.00;16.63;;;15.70;99.90;;;;;;5024051;28;20601;-84
2022/10/06 01:52:57;;;;;;;71.60;15.33;;;15.80;99.90;;;;;;5042307;28;20416;-84
2022/10/06 01:55:23;;;;;;;70.13;16.23;;;15.70;99.90;;;;;;5041596;28;20189;-84
2022/10/06 01:57:49;;;;;;;68.20;14.70;;;15.60;99.90;;;;;;5040992;28;20213;-84
2022/10/06 02:00:15;;;;;;;70.73;14.23;;;15.50;99.90;;;;;;5044699;28;20403;-84
2022/10/06 02:02:41;;;;;;;68.97;13.63;;;15.50;99.90;;;;;;5044746;28;20180;-84
2022/10/06 02:05:07;;;;;;;70.17;16.63;;;15.50;99.90;;;;;;5045341;28;20390;-84
2022/10/06 02:07:37;;;;;;;69.47;14.93;;;15.50;99.90;;;;;;5045240;28;20775;-84
2022/10/06 02:10:04;;;;;;;69.60;17.00;;;15.40;99.90;;;;;;5044961;28;20416;-84
2022/10/06 02:12:32;;;;;;;68.57;15.43;;;15.40;99.90;;;;;;5044825;28;20445;-84
2022/10/06 02:14:58;;;;;;;72.00;16.40;;;15.40;99.90;;;;;;5044260;28;20409;-84
2022/10/06 02:17:23;;;;;;;73.87;16.77;;;15.40;99.90;;;;;;5044843;28;20447;-84
2022/10/06 02:19:49;;;;;;;76.03;17.73;;;15.50;99.90;;;;;;5045535;28;20833;-84
2022/10/06 02:22:15;;;;;;;72.60;16.33;;;15.50;99.90;;;;;;5044798;28;20243;-84
2022/10/06 02:24:41;;;;;;;69.77;16.30;;;15.50;99.90;;;;;;5045368;28;20169;-84
2022/10/06 02:27:06;;;;;;;77.57;19.93;;;15.40;99.90;;;;;;5044758;28;20168;-84
2022/10/06 02:29:33;;;;;;;72.67;15.20;;;15.30;99.90;;;;;;5028021;28;20208;-84
2022/10/06 02:31:58;;;;;;;73.90;19.20;;;15.30;99.90;;;;;;5026333;28;20196;-84
2022/10/06 02:34:24;;;;;;;70.47;17.60;;;15.30;99.90;;;;;;5045391;28;20908;-84
2022/10/06 02:36:50;;;;;;;70.07;15.60;;;15.30;99.90;;;;;;5044610;28;20568;-84
2022/10/06 02:39:16;;;;;;;71.70;16.87;;;15.20;99.90;;;;;;5044783;28;20454;-84
2022/10/06 02:41:41;;;;;;;69.37;16.03;;;15.10;99.90;;;;;;5044593;28;20167;-84
2022/10/06 02:44:07;;;;;;;76.77;17.23;;;15.00;99.90;;;;;;5044666;28;20556;-84
2022/10/06 02:46:32;;;;;;;73.83;15.87;;;15.10;99.90;;;;;;5026672;28;20173;-84
2022/10/06 02:48:58;;;;;;;71.77;18.23;;;15.10;99.90;;;;;;5044352;28;20185;-84
2022/10/06 02:51:24;;;;;;;74.70;15.40;;;15.10;99.90;;;;;;5044479;28;20162;-84
2022/10/06 02:53:50;;;;;;;71.40;18.43;;;15.00;99.90;;;;;;5044869;28;20158;-84
2022/10/06 02:56:24;;;;;;;70.10;17.73;;;15.10;99.90;;;;;;5043784;28;20189;-84
2022/10/06 02:58:51;;;;;;;68.90;15.30;;;15.00;99.90;;;;;;5026244;28;20431;-84
2022/10/06 03:01:25;;;;;;;75.30;17.80;;;15.00;99.90;;;;;;5026547;28;20443;-84
2022/10/06 03:03:51;;;;;;;77.90;18.63;;;15.00;99.90;;;;;;5043860;28;20492;-84
2022/10/06 03:06:25;;;;;;;76.17;16.33;;;15.00;99.90;;;;;;5044118;28;20955;-84
2022/10/06 03:08:54;;;;;;;82.07;17.53;;;15.00;99.90;;;;;;5044252;28;20428;-84
2022/10/06 03:11:23;;;;;;;71.57;14.30;;;14.80;99.90;;;;;;5043313;28;20892;-84
2022/10/06 03:13:50;;;;;;;71.33;16.23;;;14.70;99.90;;;;;;5044405;28;20822;-84
2022/10/06 03:16:21;;;;;;;74.23;16.30;;;14.80;99.90;;;;;;5044413;28;20439;-84
2022/10/06 03:18:48;;;;;;;73.20;14.20;;;14.90;99.90;;;;;;5043510;28;20413;-84
2022/10/06 03:21:16;;;;;;;71.27;14.23;;;15.00;99.90;;;;;;5026771;28;20451;-84
2022/10/06 03:23:43;;;;;;;72.90;15.83;;;15.00;99.90;;;;;;5026645;28;20443;-84
2022/10/06 03:26:09;;;;;;;69.17;15.63;;;15.00;99.90;;;;;;5044350;28;20404;-84
2022/10/06 03:28:34;;;;;;;75.10;16.70;;;15.00;99.90;;;;;;5044636;28;20423;-84
2022/10/06 03:31:02;;;;;;;75.57;15.50;;;15.00;99.90;;;;;;5043877;28;20438;-84
2022/10/06 03:33:29;;;;;;;76.70;15.70;;;14.90;99.90;;;;;;5044829;28;20165;-84
2022/10/06 03:36:09;;;;;;;69.57;15.40;;;14.90;99.90;;;;;;5044006;28;20410;-84
2022/10/06 03:38:35;;;;;;;77.00;12.73;;;14.90;99.90;;;;;;5043992;28;20415;-84
2022/10/06 03:41:13;;;;;;;73.93;14.53;;;14.90;99.90;;;;;;5043620;28;20396;-84
2022/10/06 03:43:41;;;;;;;75.90;13.40;;;14.80;99.90;;;;;;5044056;28;20383;-84
2022/10/06 03:46:07;;;;;;;73.77;12.40;;;14.90;99.90;;;;;;5043264;28;20418;-84
2022/10/06 03:48:34;;;;;;;75.20;15.20;;;14.80;99.90;;;;;;5026549;28;20975;-84
2022/10/06 03:51:06;;;;;;;69.00;11.60;;;14.80;99.90;;;;;;5043359;28;20795;-84
2022/10/06 03:53:33;;;;;;;67.87;11.33;;;14.80;99.90;;;;;;5044067;28;20404;-84
2022/10/06 03:56:06;;;;;;;72.87;10.40;;;14.80;99.90;;;;;;5043323;28;20467;-85
2022/10/06 03:58:35;;;;;;;70.67;7.17;;;14.80;99.90;;;;;;5042704;28;20431;-84
2022/10/06 04:01:09;;;;;;;69.53;7.57;;;14.70;99.90;;;;;;5044696;28;20447;-84
2022/10/06 04:03:35;;;;;;;71.33;7.13;;;14.70;99.90;;;;;;5046332;28;20526;-84
2022/10/06 04:06:05;;;;;;;72.10;8.20;;;14.60;99.90;;;;;;5044978;28;20404;-84
2022/10/06 04:08:32;;;;;;;73.87;7.17;;;14.70;99.90;;;;;;5027098;28;20432;-84
2022/10/06 04:11:08;;;;;;;69.13;6.40;;;14.60;99.90;;;;;;5027053;28;20912;-84
2022/10/06 04:13:34;;;;;;;72.80;8.77;;;14.60;99.90;;;;;;5044914;28;20468;-84
2022/10/06 04:16:12;;;;;;;70.93;6.87;;;14.60;99.90;;;;;;5026988;28;20931;-84
2022/10/06 04:18:39;;;;;;;69.10;8.40;;;14.50;99.90;;;;;;5044132;28;20423;-84
2022/10/06 04:21:05;;;;;;;72.27;8.60;;;14.50;99.90;;;;;;5044629;28;20408;-84
2022/10/06 04:23:31;;;;;;;77.40;8.90;;;14.50;99.90;;;;;;5044220;28;20450;-84
2022/10/06 04:26:01;;;;;;;70.97;8.93;;;14.30;99.90;;;;;;5043540;28;20400;-84
2022/10/06 04:28:28;;;;;;;76.90;9.07;;;14.40;99.90;;;;;;5043821;28;20188;-84
2022/10/06 04:30:57;;;;;;;69.63;8.57;;;14.40;99.90;;;;;;5043766;28;20400;-84
2022/10/06 04:33:23;;;;;;;70.73;8.57;;;14.40;99.90;;;;;;5043112;28;20412;-84
2022/10/06 04:36:00;;;;;;;72.87;7.40;;;14.40;99.90;;;;;;5043901;28;20402;-84
2022/10/06 04:38:28;;;;;;;75.63;8.10;;;14.40;99.90;;;;;;5026048;28;20192;-84
2022/10/06 04:40:54;;;;;;;75.37;9.67;;;14.30;99.90;;;;;;5044017;28;20832;-84
2022/10/06 04:43:20;;;;;;;70.70;9.27;;;14.30;99.90;;;;;;5043851;28;20998;-84
2022/10/06 04:45:45;;;;;;;75.77;8.03;;;14.20;99.90;;;;;;5043225;28;20408;-85
2022/10/06 04:48:12;;;;;;;73.90;8.43;;;14.20;99.90;;;;;;5043623;28;20193;-84
2022/10/06 04:50:38;;;;;;;69.57;9.03;;;14.10;99.90;;;;;;5025816;28;20177;-84
2022/10/06 04:53:03;;;;;;;73.53;9.97;;;14.00;99.90;;;;;;5043046;28;20410;-84
2022/10/06 04:55:29;;;;;;;71.97;8.43;;;14.00;99.90;;;;;;5043274;28;20176;-84
2022/10/06 04:57:55;;;;;;;71.80;8.43;;;13.90;99.90;;;;;;5025938;28;20205;-84
2022/10/06 05:00:24;;;;;;;73.70;8.00;;;13.90;99.90;;;;;;5043243;28;20268;-84
2022/10/06 05:02:52;;;;;;;77.27;9.83;;;14.00;99.90;;;;;;5105891;22;20533;-82
2022/10/06 05:05:18;;;;;;;82.67;8.47;;;14.00;99.90;;;;;;5027534;28;20510;-85
2022/10/06 05:07:44;;;;;;;78.00;7.87;;;13.90;99.90;;;;;;5027394;28;20451;-85
2022/10/06 05:10:10;;;;;;;69.13;7.03;;;13.80;99.90;;;;;;5044850;28;20396;-85
2022/10/06 05:12:36;;;;;;;76.60;8.47;;;13.80;99.90;;;;;;5027780;28;20404;-85
2022/10/06 05:15:02;;;;;;;72.67;7.63;;;13.80;99.90;;;;;;5046704;28;20412;-85
2022/10/06 05:17:28;;;;;;;72.50;7.40;;;13.80;99.90;;;;;;5046577;28;20196;-85
2022/10/06 05:19:54;;;;;;;72.33;7.87;;;13.80;99.90;;;;;;5045762;28;20939;-85
2022/10/06 05:22:19;;;;;;;74.20;8.73;;;13.80;99.90;;;;;;5045942;28;20169;-85
2022/10/06 05:24:45;;;;;;;71.47;7.80;;;13.80;99.90;;;;;;5046589;28;20173;-85
2022/10/06 05:27:12;;;;;;;70.97;7.30;;;13.80;99.90;;;;;;5045516;28;20172;-85
2022/10/06 05:29:38;;;;;;;71.70;8.30;;;13.80;99.90;;;;;;5046218;28;20427;-85
2022/10/06 05:32:04;;;;;;;77.30;6.30;;;13.80;99.90;;;;;;5028058;28;20458;-84
2022/10/06 05:34:29;;;;;;;73.63;7.47;;;13.80;99.90;;;;;;5049272;28;20408;-85
2022/10/06 05:36:55;;;;;;;75.07;6.47;;;13.90;99.90;;;;;;5051926;28;20188;-85
2022/10/06 05:39:21;;;;;;;68.80;5.83;;;13.90;99.90;;;;;;5034982;28;20189;-85
2022/10/06 05:41:46;;;;;;;69.77;6.93;;;13.80;99.90;;;;;;5052438;28;20168;-85
2022/10/06 05:44:12;;;;;;;69.73;6.23;;;13.90;99.90;;;;;;5051503;28;20247;-85
2022/10/06 05:46:38;;;;;;;74.07;6.70;;;13.90;99.90;;;;;;5033321;28;20181;-85
2022/10/06 05:49:07;;;;;;;77.10;8.10;;;13.80;99.90;;;;;;5033839;28;20193;-85
2022/10/06 05:51:35;;;;;;;73.70;6.67;;;13.80;99.90;;;;;;5052568;28;20224;-85
2022/10/06 05:54:01;;;;;;;75.30;6.93;;;13.90;99.90;;;;;;5052411;28;20409;-85
2022/10/06 05:56:29;;;;;;;74.03;7.03;;;13.80;99.90;;;;;;5033557;28;20452;-85
2022/10/06 05:58:56;;;;;;;73.07;6.90;;;13.80;99.90;;;;;;5051734;28;20434;-85
2022/10/06 06:01:31;;;;;;;74.53;5.97;;;13.80;99.90;;;;;;5052239;28;20491;-85
2022/10/06 06:04:02;;;;;;;71.00;6.80;;;13.70;99.90;;;;;;5051749;28;20445;-85
2022/10/06 06:06:40;;;;;;;71.30;6.30;;;13.70;99.90;;;;;;5033475;28;20415;-85
2022/10/06 06:09:13;;;;;;;77.40;7.17;;;13.70;99.90;;;;;;5033522;28;20440;-85
2022/10/06 06:11:42;;;;;;;70.80;6.33;;;13.70;99.90;;;;;;5051400;28;20388;-85
2022/10/06 06:14:16;;;;;;;78.37;5.67;;;13.70;99.90;;;;;;5051134;28;20421;-85
2022/10/06 06:16:43;;;;;;;69.60;5.80;;;13.60;99.90;;;;;;5034026;28;20443;-85
2022/10/06 06:19:10;;;;;;;69.50;6.43;;;13.60;99.90;;;;;;5051373;28;20455;-85
2022/10/06 06:21:37;;;;;;;69.60;7.47;;;13.50;99.90;;;;;;5051095;28;20404;-85
2022/10/06 06:24:04;;;;;;;74.27;6.63;;;13.60;99.90;;;;;;5050766;28;20542;-85
2022/10/06 06:26:32;;;;;;;86.07;6.60;;;13.50;99.90;;;;;;5051060;28;20402;-85
2022/10/06 06:29:03;;;;;;;76.83;5.77;;;13.30;99.90;;;;;;5031707;28;20440;-85
2022/10/06 06:31:34;;;;;;;71.07;5.57;;;13.10;99.90;;;;;;5032975;28;20404;-85
2022/10/06 06:34:05;;;;;;;78.10;7.32;;;13.00;99.90;;;;;;5032816;28;20404;-85
2022/10/06 06:36:39;;;;;;;70.70;6.20;;;12.90;99.90;;;;;;5031960;28;20193;-85
2022/10/06 06:39:10;;;;;;;72.73;6.60;;;12.80;99.90;;;;;;5032324;28;20430;-85
2022/10/06 06:41:41;;;;;;;72.72;6.72;;;12.90;99.90;;;;;;5050825;28;20903;-85
2022/10/06 06:44:10;;;;;;;74.90;6.35;;;12.90;99.90;;;;;;5050539;28;20164;-85
2022/10/06 06:46:36;;;;;;;70.43;6.80;;;12.90;99.90;;;;;;5028612;28;20165;-85
2022/10/06 06:49:04;;;;;;;70.78;6.63;;;13.10;99.90;;;;;;5046960;28;20181;-85
2022/10/06 06:51:33;;;;;;;71.85;5.47;;;13.30;99.90;;;;;;5046518;28;20195;-85
2022/10/06 06:54:01;;;;;;;76.97;6.25;;;13.20;99.90;;;;;;5047193;28;20229;-85
2022/10/06 06:56:27;;;;;;;72.72;6.63;;;13.30;99.90;;;;;;5047499;28;20185;-85
2022/10/06 06:58:57;;;;;;;70.97;6.15;;;13.40;99.90;;;;;;5047215;28;20184;-85
2022/10/06 07:01:22;;;;;;;69.75;5.60;;;13.40;99.90;;;;;;5045940;28;20185;-85
2022/10/06 07:03:53;;;;;;;74.63;5.63;;;13.40;99.90;;;;;;5046221;28;20184;-85
2022/10/06 07:06:20;;;;;;;76.23;6.07;;;13.50;99.90;;;;;;5047668;28;20215;-85
2022/10/06 07:08:47;;;;;;;72.60;5.30;;;13.50;99.90;;;;;;5030706;28;20439;-85
2022/10/06 07:11:22;;;;;;;73.80;5.73;;;13.50;99.90;;;;;;5048210;28;20426;-85
2022/10/06 07:13:53;;;;;;;70.40;5.30;;;13.50;99.90;;;;;;5047979;28;20409;-85
2022/10/06 07:25:06;;;;;;;71.03;5.90;;;13.50;99.90;;;;;;5046959;28;20224;-85
2022/10/06 07:27:34;;;;;;;74.10;6.33;;;13.50;99.90;;;;;;5047363;28;20884;-84
2022/10/06 07:29:59;;;;;;;72.67;5.10;;;13.60;99.90;;;;;;5047002;28;20392;-85
2022/10/06 07:32:29;;;;;;;72.40;6.40;;;13.60;99.90;;;;;;5046608;28;20408;-85
2022/10/06 07:34:56;;;;;;;71.75;6.00;;;13.60;99.90;;;;;;5046342;28;20165;-85
2022/10/06 07:37:23;;;;;;;73.27;5.90;;;13.50;99.90;;;;;;5029029;28;20254;-84
2022/10/06 07:39:48;;;;;;;68.97;5.35;;;13.50;99.90;;;;;;5028021;28;20404;-84
2022/10/06 07:42:15;;;;;;;78.40;5.93;;;13.50;99.90;;;;;;5046239;28;20164;-85
2022/10/06 07:44:42;;;;;;;74.95;6.10;;;13.60;99.90;;;;;;5046162;28;20937;-85
2022/10/06 07:47:08;;;;;;;85.28;7.22;;;13.50;99.90;;;;;;5027290;28;20717;-85
2022/10/06 07:49:34;;;;;;;75.15;7.72;;;13.50;99.90;;;;;;5045642;28;20185;-85
2022/10/06 07:52:01;;;;;;;78.53;6.50;;;13.60;99.90;;;;;;5046349;28;20192;-85
2022/10/06 07:54:27;;;;;;;73.67;5.93;;;13.60;99.90;;;;;;5028462;28;20169;-85
2022/10/06 07:56:54;;;;;;;72.87;6.80;;;13.60;99.90;;;;;;5045754;28;20444;-85
2022/10/06 07:59:20;;;;;;;76.47;6.50;;;13.70;99.90;;;;;;5046427;28;20419;-85
2022/10/06 08:01:46;;;;;;;76.47;7.00;;;13.70;99.90;;;;;;5046528;28;20400;-85
2022/10/06 08:04:12;;;;;;;74.13;5.60;;;13.80;99.90;;;;;;5045497;28;20432;-85
2022/10/06 08:06:39;;;;;;;74.93;6.10;;;13.80;99.90;;;;;;5028378;28;20427;-86
2022/10/06 08:09:05;;;;;;;75.63;7.03;;;13.80;99.90;;;;;;5046626;28;20432;-85
2022/10/06 08:11:31;;;;;;;71.77;6.40;;;13.80;99.90;;;;;;5027047;28;20852;-85
2022/10/06 08:13:57;;;;;;;72.27;6.27;;;13.90;99.90;;;;;;5027703;28;20458;-85
2022/10/06 08:16:28;;;;;;;76.70;5.80;;;13.90;99.90;;;;;;5045520;28;20190;-84
2022/10/06 08:18:56;;;;;;;77.33;6.33;;;14.00;99.90;;;;;;5012119;28;20435;-85
2022/10/06 08:21:23;;;;;;;69.33;5.90;;;14.00;99.90;;;;;;5027951;28;20831;-85
2022/10/06 08:23:49;;;;;;;75.40;5.60;;;14.00;99.90;;;;;;5045502;28;20408;-85
2022/10/06 08:26:17;;;;;;;77.73;5.80;;;14.00;99.90;;;;;;5044658;28;20918;-84
2022/10/06 08:28:49;;;;;;;70.80;5.63;;;14.10;99.90;;;;;;5027851;28;20432;-84
2022/10/06 08:31:17;;;;;;;75.20;6.60;;;14.10;99.90;;;;;;5044836;28;20384;-85
2022/10/06 08:33:44;;;;;;;71.00;5.53;;;14.20;99.90;;;;;;5045359;28;20439;-85
2022/10/06 08:36:17;;;;;;;69.77;6.20;;;14.20;99.90;;;;;;5027070;28;20404;-85
2022/10/06 08:38:48;;;;;;;70.50;6.37;;;14.20;99.60;;;;;;5045613;28;20443;-84
2022/10/06 08:41:32;;;;;;;69.97;6.70;;;14.20;99.90;;;;;;5045416;28;20403;-85
2022/10/06 08:44:18;;;;;;;76.50;5.37;;;14.30;99.80;;;;;;5044950;28;20377;-85
2022/10/06 08:47:12;;;;;;;73.30;6.33;;;14.30;98.40;;;;;;5027674;28;20775;-84
2022/10/06 08:49:43;;;;;;;73.50;6.00;;;14.30;99.90;;;;;;5027500;28;20435;-86
2022/10/06 08:52:25;;;;;;;75.63;6.13;;;14.40;99.90;;;;;;5045018;28;20382;-85
2022/10/06 08:55:13;;;;;;;76.60;5.57;;;14.40;97.90;;;;;;5046154;28;20412;-84
2022/10/06 08:57:57;;;;;;;72.17;5.80;;;14.40;95.20;;;;;;5027342;28;20439;-84
2022/10/06 09:00:23;;;;;;;82.83;5.70;;;14.50;94.20;;;;;;5028915;28;20397;-84
2022/10/06 09:02:50;;;;;;;73.20;5.83;;;14.50;93.60;;;;;;5045418;28;20423;-84
2022/10/06 09:05:24;;;;;;;74.23;5.87;;;14.50;94.30;;;;;;5027473;28;20223;-85
2022/10/06 09:08:04;;;;;;;72.80;5.20;;;14.50;96.90;;;;;;5044420;28;20428;-85
2022/10/06 09:10:43;;;;;;;72.80;5.10;;;14.60;92.00;;;;;;5045255;28;20434;-84
2022/10/06 09:13:28;;;;;;;70.93;5.90;;;14.70;91.00;;;;;;5044953;28;20384;-84
2022/10/06 09:16:18;;;;;;;73.90;5.57;;;14.70;92.20;;;;;;5045147;28;20740;-84
2022/10/06 09:19:12;;;;;;;74.20;5.50;;;14.80;93.10;;;;;;5043836;28;20427;-85
2022/10/06 09:21:44;;;;;;;77.10;4.93;;;15.00;86.00;;;;;;5022696;28;20411;-84
2022/10/06 09:24:15;;;;;;;68.07;4.50;;;15.10;75.50;;;;;;5044138;28;20377;-85
2022/10/06 09:26:43;;;;;;;68.80;3.93;;;15.10;67.20;;;;;;5026047;28;20414;-85
2022/10/06 09:29:09;;;;;;;78.57;4.37;;;15.20;67.40;;;;;;5043558;28;20423;-84
2022/10/06 09:31:49;;;;;;;70.80;4.47;;;15.30;55.40;;;;;;5044051;28;20397;-84
2022/10/06 09:34:33;;;;;;;71.43;4.13;;;15.30;58.40;;;;;;5043743;28;20146;-85
2022/10/06 09:37:03;;;;;;;68.77;3.57;;;15.40;48.70;;;;;;5027048;28;20447;-84
2022/10/06 09:39:38;;;;;;;78.20;5.37;;;15.40;47.60;;;;;;5026842;28;20432;-85
2022/10/06 09:42:27;;;;;;;70.67;5.20;;;15.60;51.90;;;;;;5043629;28;20452;-84
2022/10/06 09:45:00;;;;;;;77.20;6.13;;;15.70;37.90;;;;;;5026695;28;20491;-84
2022/10/06 09:47:30;;;;;;;77.83;5.83;;;15.80;38.30;;;;;;5026610;28;20411;-84
2022/10/06 09:50:13;;;;;;;69.10;5.80;;;15.90;41.50;;;;;;5044375;28;20408;-84
2022/10/06 09:52:40;;;;;;;71.67;5.30;;;16.10;36.80;;;;;;5026157;28;20424;-84
2022/10/06 09:55:11;;;;;;;77.33;7.50;;;16.20;35.20;;;;;;5044988;28;20415;-84
2022/10/06 09:57:45;;;;;;;72.67;6.80;;;16.30;39.00;;;;;;5045010;28;20443;-84
2022/10/06 10:00:35;;;;;;;69.57;3.87;;;16.40;39.30;;;;;;5044362;28;20491;-84
2022/10/06 10:03:04;;;;;;;67.40;5.67;;;16.60;13.60;;;;;;5045217;28;20384;-84
2022/10/06 10:05:32;;;;;;;70.53;7.40;;;16.70;23.50;;;;;;5044960;28;20770;-84
2022/10/06 10:08:08;;;;;;;71.00;6.40;;;16.90;23.60;;;;;;5044422;28;20432;-84
2022/10/06 10:10:35;;;;;;;72.63;6.13;;;17.20;24.10;;;;;;5044848;28;20394;-83
2022/10/06 10:13:02;;;;;;;72.17;5.20;;;17.40;19.90;;;;;;5026542;28;20436;-83
2022/10/06 10:15:39;;;;;;;73.53;3.93;;;17.60;13.90;;;;;;5044221;28;20406;-84
2022/10/06 10:18:12;;;;;;;69.17;3.20;;;17.60;1.00;;;;;;5026783;28;20459;-84
2022/10/06 10:20:54;;;;;;;68.40;3.27;;;17.70;3.40;;;;;;5047847;28;20440;-84
2022/10/06 10:23:22;;;;;;;71.30;3.40;;;18.00;1.00;;;;;;5048451;28;20385;-84
2022/10/06 10:26:18;;;;;;;69.47;3.40;;;18.10;1.00;;;;;;5047644;28;20419;-83
2022/10/06 10:29:06;;;;;;;73.50;3.00;;;18.30;1.00;;;;;;5048432;28;20420;-84
2022/10/06 10:31:41;;;;;;;71.50;3.73;;;18.40;1.00;;;;;;5029974;28;20419;-84
2022/10/06 10:34:06;;;;;;;74.33;3.40;;;18.40;1.00;;;;;;5048062;28;20422;-84
2022/10/06 10:36:43;;;;;;;77.33;4.30;;;18.40;1.00;;;;;;5048448;28;20477;-84
2022/10/06 10:39:14;;;;;;;74.37;4.40;;;18.60;1.00;;;;;;5048652;28;20260;-84
2022/10/06 10:41:51;;;;;;;69.13;4.37;;;18.60;1.00;;;;;;5048838;28;20496;-84
2022/10/06 10:44:50;;;;;;;72.37;4.73;;;18.50;1.00;;;;;;5048529;28;20380;-84
2022/10/06 10:47:33;;;;;;;70.43;5.20;;;18.40;1.00;;;;;;5030153;28;20432;-85
2022/10/06 10:50:07;;;;;;;71.17;4.17;;;18.60;1.00;;;;;;5030466;28;20399;-84
2022/10/06 10:52:40;;;;;;;72.23;4.07;;;18.60;1.00;;;;;;5048559;28;20476;-85
2022/10/06 10:55:38;;;;;;;68.23;3.57;;;18.70;1.00;;;;;;5048314;28;20392;-85
2022/10/06 10:58:16;;;;;;;70.30;4.60;;;18.70;1.00;;;;;;5030218;28;20451;-82
2022/10/06 11:01:04;;;;;;;70.50;3.60;;;18.70;1.00;;;;;;5048636;28;20384;-82
2022/10/06 11:03:30;;;;;;;74.13;4.20;;;18.80;1.00;;;;;;5059974;22;20495;-82
2022/10/06 11:06:13;;;;;;;75.63;4.23;;;18.80;1.00;;;;;;5044135;28;20456;-82
2022/10/06 11:09:03;;;;;;;68.97;3.33;;;19.10;1.00;;;;;;5043839;28;20416;-82
2022/10/06 11:11:53;;;;;;;70.50;3.87;;;19.10;1.00;;;;;;5043874;28;20865;-82
2022/10/06 11:14:27;;;;;;;71.80;3.40;;;19.20;1.00;;;;;;5044407;28;20423;-82
2022/10/06 11:17:12;;;;;;;71.07;3.90;;;19.20;1.00;;;;;;5043673;28;20495;-82
2022/10/06 11:20:13;;;;;;;75.10;3.90;;;19.20;1.00;;;;;;5044539;28;20420;-82
2022/10/06 11:22:58;;;;;;;70.97;3.10;;;19.30;1.00;;;;;;5044917;28;20404;-82
2022/10/06 11:25:48;;;;;;;71.83;3.70;;;19.30;1.00;;;;;;5043610;28;20419;-82
2022/10/06 11:28:30;;;;;;;72.00;3.47;;;19.30;1.00;;;;;;5044215;28;20416;-82
2022/10/06 11:30:59;;;;;;;68.30;3.70;;;19.50;1.00;;;;;;5043827;28;20388;-82
2022/10/06 11:33:35;;;;;;;73.53;3.90;;;19.60;1.00;;;;;;5043145;28;20899;-82
2022/10/06 11:36:02;;;;;;;69.80;3.60;;;19.60;1.00;;;;;;5044100;28;20921;-82
2022/10/06 11:38:40;;;;;;;70.17;3.50;;;19.70;1.00;;;;;;5043042;28;20473;-82
2022/10/06 11:41:15;;;;;;;70.87;3.97;;;20.00;1.00;;;;;;5041017;28;20725;-82
2022/10/06 11:43:49;;;;;;;67.93;4.07;;;19.80;1.00;;;;;;5044555;28;20390;-82
2022/10/06 11:46:28;;;;;;;73.40;4.50;;;20.10;1.00;;;;;;5043774;28;20376;-82
2022/10/06 11:49:22;;;;;;;70.80;4.00;;;20.00;1.00;;;;;;5043404;28;20420;-82
2022/10/06 11:51:48;;;;;;;72.20;4.10;;;20.10;1.00;;;;;;5043716;28;20393;-83
2022/10/06 11:54:48;;;;;;;69.20;5.20;;;20.20;1.00;;;;;;5042716;28;20399;-82
2022/10/06 11:57:25;;;;;;;69.80;3.90;;;20.10;1.00;;;;;;5043004;28;20208;-82
2022/10/06 11:59:54;;;;;;;71.97;4.07;;;20.20;1.00;;;;;;5042945;28;20434;-83
2022/10/06 12:02:29;;;;;;;67.43;3.53;;;20.30;1.00;;;;;;5044145;28;20389;-82
2022/10/06 12:05:13;;;;;;;68.40;4.20;;;20.20;1.00;;;;;;4985544;28;1153230;-82
2022/10/06 12:07:54;;;;;;;73.23;3.83;;;20.20;1.00;;;;;;5044076;28;20238;-82
2022/10/06 12:10:30;;;;;;;70.47;3.30;;;20.20;1.00;;;;;;5044412;28;20404;-82
2022/10/06 12:13:09;;;;;;;70.60;3.73;;;20.30;1.00;;;;;;5044844;28;20484;-82
2022/10/06 12:15:55;;;;;;;68.80;4.00;;;20.20;1.00;;;;;;5044860;28;20789;-82
2022/10/06 12:18:36;;;;;;;70.27;3.50;;;20.20;1.00;;;;;;5042575;28;21072;-82
2022/10/06 12:21:22;;;;;;;70.77;3.77;;;20.20;1.00;;;;;;5040450;28;20388;-82
2022/10/06 12:24:16;;;;;;;69.77;2.50;;;20.30;1.00;;;;;;5040624;28;20402;-82
2022/10/06 12:27:03;;;;;;;73.43;2.83;;;20.20;1.00;;;;;;5040523;28;20389;-82
2022/10/06 12:29:38;;;;;;;71.70;2.70;;;20.20;1.00;;;;;;5040255;28;20424;-82
2022/10/06 12:32:14;;;;;;;69.23;3.13;;;20.20;1.00;;;;;;5040839;28;20383;-82
2022/10/06 12:35:14;;;;;;;68.27;3.00;;;20.10;1.00;;;;;;5040292;28;20458;-82
2022/10/06 12:37:48;;;;;;;69.17;2.60;;;20.00;1.00;;;;;;5031372;28;20456;-82
2022/10/06 12:40:40;;;;;;;69.77;3.17;;;19.90;1.00;;;;;;5039889;28;20487;-82
2022/10/06 12:43:18;;;;;;;70.33;3.00;;;19.90;1.00;;;;;;5039534;28;20392;-82
2022/10/06 12:45:47;;;;;;;69.80;2.70;;;19.90;1.00;;;;;;5040426;28;20380;-82
2022/10/06 12:48:19;;;;;;;69.47;3.40;;;19.80;1.00;;;;;;5040376;28;20970;-82
2022/10/06 12:50:50;;;;;;;68.70;2.73;;;19.70;1.00;;;;;;5040343;28;20387;-82
2022/10/06 12:53:26;;;;;;;72.00;3.20;;;19.50;1.00;;;;;;5041221;28;20388;-82
2022/10/06 12:55:55;;;;;;;70.27;2.63;;;19.40;1.00;;;;;;5040414;28;20729;-82
2022/10/06 12:58:32;;;;;;;68.17;2.83;;;19.60;1.00;;;;;;5040055;28;20995;-82
2022/10/06 13:01:02;;;;;;;70.40;2.50;;;19.60;1.00;;;;;;5039420;28;20740;-82
2022/10/06 13:03:29;;;;;;;68.20;2.60;;;19.60;1.00;;;;;;5039724;28;20413;-82
2022/10/06 13:06:00;;;;;;;67.93;2.60;;;19.40;1.00;;;;;;5039893;28;20418;-82